Time;durP1;ratioP1;P1;durP2;ratioP2;P2;SDS_P1;SDS_P2;PMS_P1;PMS_P2;Temp;Humidity;BMP_temperature;BMP_pressure;BME280_temperature;BME280_humidity;BME280_pressure;Samples;Min_cycle;Max_cycle;Signal;HPM_P1;HPM_P2
2022/05/28 00:00:00;;;;;;;17.90;9.20;;;;;;;;;;6275841;28;20021;-80
2022/05/28 00:03:01;;;;;;;16.50;9.50;;;;;;;;;;6275863;28;20620;-80
2022/05/28 00:06:02;;;;;;;18.50;10.07;;;;;;;;;;6274555;28;20270;-80
2022/05/28 00:09:03;;;;;;;19.10;9.40;;;;;;;;;;6273487;28;20025;-80
2022/05/28 00:12:04;;;;;;;16.30;10.23;;;;;;;;;;6274728;28;20074;-80
2022/05/28 00:15:05;;;;;;;15.23;9.05;;;;;;;;;;6272822;28;20017;-79
2022/05/28 00:18:05;;;;;;;18.73;8.85;;;;;;;;;;6273772;28;20033;-79
2022/05/28 00:21:06;;;;;;;16.73;8.75;;;;;;;;;;6274183;28;20106;-79
2022/05/28 00:24:06;;;;;;;17.15;8.88;;;;;;;;;;6273261;28;20021;-80
2022/05/28 00:27:07;;;;;;;13.20;7.70;;;;;;;;;;6268677;28;20423;-80
2022/05/28 00:30:08;;;;;;;16.92;8.90;;;;;;;;;;6272825;28;20020;-80
2022/05/28 00:33:08;;;;;;;13.70;7.67;;;;;;;;;;6263705;28;20035;-80
2022/05/28 00:36:09;;;;;;;16.17;8.47;;;;;;;;;;6272466;28;20013;-81
2022/05/28 00:39:09;;;;;;;12.35;8.27;;;;;;;;;;6273350;28;20263;-80
2022/05/28 00:42:09;;;;;;;15.60;9.00;;;;;;;;;;6272543;28;20016;-80
2022/05/28 00:45:10;;;;;;;12.90;8.77;;;;;;;;;;6263704;28;20099;-80
2022/05/28 00:48:11;;;;;;;17.77;8.52;;;;;;;;;;6272515;28;20020;-80
2022/05/28 00:51:20;;;;;;;15.30;8.68;;;;;;;;;;6273464;28;20039;-80
2022/05/28 00:54:20;;;;;;;15.88;9.13;;;;;;;;;;6269479;28;20556;-80
2022/05/28 00:57:22;;;;;;;15.35;8.27;;;;;;;;;;6266411;28;20021;-80
2022/05/28 01:00:22;;;;;;;14.17;8.70;;;;;;;;;;6271701;28;20536;-79
2022/05/28 01:03:29;;;;;;;13.35;8.23;;;;;;;;;;6274047;28;20052;-79
2022/05/28 01:06:31;;;;;;;13.65;8.98;;;;;;;;;;6271976;28;20071;-81
2022/05/28 01:09:44;;;;;;;14.10;8.13;;;;;;;;;;6272038;28;20024;-80
2022/05/28 01:12:49;;;;;;;18.63;11.68;;;;;;;;;;6278559;28;20025;-81
2022/05/28 01:15:53;;;;;;;19.92;11.80;;;;;;;;;;6277141;28;20117;-80
2022/05/28 01:19:01;;;;;;;19.67;11.82;;;;;;;;;;6277887;28;20412;-80
2022/05/28 01:22:01;;;;;;;21.48;12.43;;;;;;;;;;6275784;28;20048;-80
2022/05/28 01:25:04;;;;;;;15.85;10.73;;;;;;;;;;6277687;28;20400;-80
2022/05/28 01:28:06;;;;;;;17.15;11.32;;;;;;;;;;6274364;28;20024;-79
2022/05/28 01:31:07;;;;;;;18.65;10.73;;;;;;;;;;6276783;28;20017;-80
2022/05/28 01:34:08;;;;;;;16.48;10.30;;;;;;;;;;6277726;28;20023;-80
2022/05/28 01:37:09;;;;;;;14.68;9.48;;;;;;;;;;6277331;28;20021;-80
2022/05/28 01:40:10;;;;;;;15.27;9.23;;;;;;;;;;6278288;28;20477;-80
2022/05/28 01:43:11;;;;;;;19.08;12.02;;;;;;;;;;6277337;28;20047;-79
2022/05/28 01:46:12;;;;;;;18.10;11.02;;;;;;;;;;6270627;28;20051;-79
2022/05/28 01:49:14;;;;;;;21.75;12.00;;;;;;;;;;6274322;28;20170;-80
2022/05/28 01:52:15;;;;;;;20.02;12.60;;;;;;;;;;6270436;28;20572;-80
2022/05/28 01:55:17;;;;;;;22.02;14.77;;;;;;;;;;6271501;28;20017;-80
2022/05/28 01:58:17;;;;;;;20.10;13.40;;;;;;;;;;6275035;28;20538;-80
2022/05/28 02:01:17;;;;;;;24.58;12.23;;;;;;;;;;6275110;28;20013;-80
2022/05/28 02:04:18;;;;;;;22.45;13.55;;;;;;;;;;6276506;28;20488;-80
2022/05/28 02:07:19;;;;;;;20.83;13.70;;;;;;;;;;6267329;28;20024;-80
2022/05/28 02:10:20;;;;;;;38.17;15.70;;;;;;;;;;6266987;28;20152;-79
2022/05/28 02:13:23;;;;;;;24.47;13.67;;;;;;;;;;6275422;28;20020;-80
2022/05/28 02:16:36;;;;;;;21.88;13.13;;;;;;;;;;6275909;28;20028;-80
2022/05/28 02:19:44;;;;;;;24.13;13.35;;;;;;;;;;6271928;28;20101;-80
2022/05/28 02:22:53;;;;;;;20.92;12.13;;;;;;;;;;6271312;28;20025;-80
2022/05/28 02:25:54;;;;;;;19.30;12.30;;;;;;;;;;6276113;28;20017;-80
2022/05/28 02:28:54;;;;;;;21.20;12.57;;;;;;;;;;6274351;28;20230;-80
2022/05/28 02:31:55;;;;;;;18.00;11.55;;;;;;;;;;6273614;28;20284;-80
2022/05/28 02:34:55;;;;;;;21.63;10.80;;;;;;;;;;6272244;28;20025;-79
2022/05/28 02:37:55;;;;;;;21.33;11.53;;;;;;;;;;6273444;28;20013;-80
2022/05/28 02:40:56;;;;;;;16.80;11.25;;;;;;;;;;6262462;28;20326;-79
2022/05/28 02:43:56;;;;;;;19.92;11.55;;;;;;;;;;6273229;28;20017;-79
2022/05/28 02:46:56;;;;;;;18.93;10.93;;;;;;;;;;6290630;28;20366;-79
2022/05/28 02:49:56;;;;;;;16.17;11.68;;;;;;;;;;6275604;28;20617;-79
2022/05/28 02:52:56;;;;;;;18.85;12.75;;;;;;;;;;6270735;28;20043;-80
2022/05/28 02:55:57;;;;;;;17.97;10.83;;;;;;;;;;6267328;28;20092;-79
2022/05/28 02:58:57;;;;;;;26.60;12.53;;;;;;;;;;6275760;28;20330;-80
2022/05/28 03:01:57;;;;;;;18.73;10.57;;;;;;;;;;6274613;28;20352;-81
2022/05/28 03:04:57;;;;;;;27.23;11.98;;;;;;;;;;6275309;28;20264;-80
2022/05/28 03:07:58;;;;;;;24.98;14.02;;;;;;;;;;6275450;28;20052;-79
2022/05/28 03:10:58;;;;;;;19.08;11.05;;;;;;;;;;6267764;28;20028;-79
2022/05/28 03:13:59;;;;;;;18.63;10.07;;;;;;;;;;6267196;28;20490;-80
2022/05/28 03:16:59;;;;;;;18.85;11.35;;;;;;;;;;6274395;28;20613;-80
2022/05/28 03:20:01;;;;;;;18.63;11.03;;;;;;;;;;6273761;28;20067;-79
2022/05/28 03:23:01;;;;;;;20.67;12.07;;;;;;;;;;6270424;28;20615;-80
2022/05/28 03:26:15;;;;;;;17.10;10.07;;;;;;;;;;6274076;28;20021;-80
2022/05/28 03:29:15;;;;;;;27.23;10.65;;;;;;;;;;6268347;28;20267;-80
2022/05/28 03:32:15;;;;;;;20.88;10.18;;;;;;;;;;6271939;28;20040;-80
2022/05/28 03:35:16;;;;;;;19.52;12.18;;;;;;;;;;6273348;28;20020;-81
2022/05/28 03:38:16;;;;;;;21.27;11.38;;;;;;;;;;6272848;28;20013;-80
2022/05/28 03:41:16;;;;;;;21.50;12.23;;;;;;;;;;6275006;28;20021;-80
2022/05/28 03:44:17;;;;;;;25.25;12.57;;;;;;;;;;6268620;28;20275;-80
2022/05/28 03:47:17;;;;;;;19.33;12.07;;;;;;;;;;6259336;28;20017;-80
2022/05/28 03:50:17;;;;;;;19.63;11.57;;;;;;;;;;6280867;28;20763;-80
2022/05/28 03:53:17;;;;;;;24.63;12.90;;;;;;;;;;6268432;28;20017;-80
2022/05/28 03:56:18;;;;;;;21.83;12.55;;;;;;;;;;6267093;28;20262;-82
2022/05/28 03:59:19;;;;;;;20.40;11.43;;;;;;;;;;6259696;28;20381;-80
2022/05/28 04:02:20;;;;;;;22.37;13.50;;;;;;;;;;6258807;28;20014;-80
2022/05/28 04:05:22;;;;;;;18.65;12.35;;;;;;;;;;6262147;28;20367;-80
2022/05/28 04:08:22;;;;;;;17.13;11.48;;;;;;;;;;6266222;28;20525;-80
2022/05/28 04:11:22;;;;;;;19.90;11.48;;;;;;;;;;6273658;28;20013;-80
2022/05/28 04:14:23;;;;;;;18.80;11.05;;;;;;;;;;6267589;28;20021;-81
2022/05/28 04:17:23;;;;;;;21.10;12.13;;;;;;;;;;6287222;28;20105;-80
2022/05/28 04:20:23;;;;;;;23.67;11.33;;;;;;;;;;6270578;28;20500;-79
2022/05/28 04:23:24;;;;;;;19.83;11.52;;;;;;;;;;6263933;28;20601;-80
2022/05/28 04:26:24;;;;;;;18.92;13.52;;;;;;;;;;6266046;28;20065;-79
2022/05/28 04:29:24;;;;;;;22.92;12.30;;;;;;;;;;6271580;28;20029;-79
2022/05/28 04:32:25;;;;;;;16.65;11.95;;;;;;;;;;6268381;28;20044;-79
2022/05/28 04:35:25;;;;;;;17.98;11.40;;;;;;;;;;6266787;28;20021;-79
2022/05/28 04:38:26;;;;;;;17.40;11.68;;;;;;;;;;6260238;28;20017;-78
2022/05/28 04:41:26;;;;;;;18.35;11.13;;;;;;;;;;6261655;28;20112;-75
2022/05/28 04:44:26;;;;;;;17.05;10.95;;;;;;;;;;6266100;28;20385;-75
2022/05/28 04:47:26;;;;;;;20.88;14.18;;;;;;;;;;6263214;28;20025;-75
2022/05/28 04:50:27;;;;;;;22.53;13.63;;;;;;;;;;6276662;28;20024;-75
2022/05/28 04:53:27;;;;;;;18.15;12.00;;;;;;;;;;6261821;28;21862;-74
2022/05/28 04:56:27;;;;;;;23.43;11.53;;;;;;;;;;6268108;28;20024;-74
2022/05/28 04:59:27;;;;;;;15.60;10.73;;;;;;;;;;6261560;28;20259;-74
2022/05/28 05:02:27;;;;;;;16.47;8.40;;;;;;;;;;6263911;28;20801;-73
2022/05/28 05:05:28;;;;;;;13.68;8.25;;;;;;;;;;6270725;28;20318;-74
2022/05/28 05:08:28;;;;;;;14.52;8.68;;;;;;;;;;6275503;28;20017;-74
2022/05/28 05:11:28;;;;;;;19.38;9.60;;;;;;;;;;6276225;28;20021;-74
2022/05/28 05:14:28;;;;;;;13.70;6.87;;;;;;;;;;6270980;28;20016;-74
2022/05/28 05:17:29;;;;;;;20.03;6.33;;;;;;;;;;6276650;28;20263;-74
2022/05/28 05:20:29;;;;;;;13.50;6.67;;;;;;;;;;6273646;28;20299;-75
2022/05/28 05:23:29;;;;;;;10.35;3.28;;;;;;;;;;6272789;28;20285;-75
2022/05/28 05:26:29;;;;;;;10.00;4.03;;;;;;;;;;6276342;28;20380;-74
2022/05/28 05:29:30;;;;;;;5.90;3.00;;;;;;;;;;6273590;28;20028;-74
2022/05/28 05:32:30;;;;;;;6.07;3.60;;;;;;;;;;6272317;28;20179;-75
2022/05/28 05:35:30;;;;;;;9.50;3.30;;;;;;;;;;6266669;28;20094;-75
2022/05/28 05:38:31;;;;;;;7.57;2.60;;;;;;;;;;6269879;28;20570;-75
2022/05/28 05:41:31;;;;;;;8.40;3.43;;;;;;;;;;6267464;28;20497;-75
2022/05/28 05:44:31;;;;;;;8.73;4.13;;;;;;;;;;6259794;28;20437;-75
2022/05/28 05:47:32;;;;;;;3.57;1.60;;;;;;;;;;6265683;28;20064;-74
2022/05/28 05:50:33;;;;;;;4.28;1.75;;;;;;;;;;6273143;28;20060;-74
2022/05/28 05:53:33;;;;;;;5.70;1.83;;;;;;;;;;6269813;28;20021;-74
2022/05/28 05:56:33;;;;;;;8.53;2.33;;;;;;;;;;6270562;28;20354;-74
2022/05/28 05:59:33;;;;;;;3.93;1.43;;;;;;;;;;6263606;28;20021;-74
2022/05/28 06:02:33;;;;;;;4.57;1.60;;;;;;;;;;6263555;28;20025;-74
2022/05/28 06:05:34;;;;;;;3.93;2.10;;;;;;;;;;6267590;28;20556;-74
2022/05/28 06:08:34;;;;;;;5.57;2.00;;;;;;;;;;6269196;28;20023;-73
2022/05/28 06:11:34;;;;;;;6.23;2.07;;;;;;;;;;6270079;28;20084;-73
2022/05/28 06:14:34;;;;;;;7.03;2.23;;;;;;;;;;6262337;28;20029;-74
2022/05/28 06:17:35;;;;;;;7.47;2.50;;;;;;;;;;6269330;28;20021;-74
2022/05/28 06:20:36;;;;;;;16.08;2.33;;;;;;;;;;6268514;28;20353;-74
2022/05/28 06:23:36;;;;;;;6.73;2.53;;;;;;;;;;6265495;28;20103;-74
2022/05/28 06:26:37;;;;;;;8.07;2.90;;;;;;;;;;6260578;28;20013;-74
2022/05/28 06:29:37;;;;;;;;;;;;;;;;;;6270953;28;20155;-73
2022/05/28 06:32:38;;;;;;;7.88;3.40;;;;;;;;;;6271004;28;20016;-73
2022/05/28 06:35:38;;;;;;;6.83;2.37;;;;;;;;;;6260735;28;20081;-73
2022/05/28 06:38:39;;;;;;;8.82;2.63;;;;;;;;;;6253334;28;20075;-74
2022/05/28 06:41:39;;;;;;;12.73;3.50;;;;;;;;;;6253285;28;20028;-74
2022/05/28 06:44:40;;;;;;;9.57;2.30;;;;;;;;;;6259695;28;20025;-73
2022/05/28 06:47:41;;;;;;;7.77;2.83;;;;;;;;;;6251725;28;20021;-74
2022/05/28 06:54:01;;;;;;;7.60;2.25;;;;;;;;;;6253822;28;20026;-74
2022/05/28 06:57:01;;;;;;;5.87;2.23;;;;;;;;;;6262247;28;20024;-74
2022/05/28 07:00:01;;;;;;;12.13;1.87;;;;;;;;;;6254379;28;20022;-74
2022/05/28 07:03:02;;;;;;;8.10;2.27;;;;;;;;;;6260365;28;20032;-74
2022/05/28 07:06:02;;;;;;;8.00;1.97;;;;;;;;;;6253227;28;20041;-74
2022/05/28 07:09:05;;;;;;;5.53;2.40;;;;;;;;;;6253193;28;20596;-74
2022/05/28 07:12:05;;;;;;;7.25;2.50;;;;;;;;;;6255801;28;20048;-74
2022/05/28 07:15:06;;;;;;;12.60;2.30;;;;;;;;;;6263340;28;20029;-73
2022/05/28 07:18:07;;;;;;;6.63;2.07;;;;;;;;;;6260374;28;20423;-73
2022/05/28 07:21:08;;;;;;;7.53;2.37;;;;;;;;;;6255148;28;20067;-74
2022/05/28 07:24:08;;;;;;;4.67;1.70;;;;;;;;;;6258050;28;20087;-74
2022/05/28 07:27:11;;;;;;;6.80;1.80;;;;;;;;;;6252907;28;20472;-74
2022/05/28 07:30:11;;;;;;;2.65;1.42;;;;;;;;;;6257350;28;20040;-74
2022/05/28 07:33:11;;;;;;;3.43;0.90;;;;;;;;;;6266605;28;20105;-74
2022/05/28 07:36:16;;;;;;;6.47;1.37;;;;;;;;;;6266315;28;20102;-73
2022/05/28 07:39:16;;;;;;;5.68;1.55;;;;;;;;;;6266558;28;20090;-74
2022/05/28 07:42:16;;;;;;;3.33;1.10;;;;;;;;;;6271201;28;20555;-73
2022/05/28 07:45:17;;;;;;;5.47;1.50;;;;;;;;;;6267581;28;20082;-74
2022/05/28 07:48:17;;;;;;;2.63;1.50;;;;;;;;;;6266095;28;20028;-73
2022/05/28 07:51:17;;;;;;;3.33;1.50;;;;;;;;;;6269745;28;20021;-73
2022/05/28 07:54:18;;;;;;;12.82;2.25;;;;;;;;;;6267869;28;20046;-74
2022/05/28 07:57:18;;;;;;;6.13;1.33;;;;;;;;;;6259292;28;20025;-74
2022/05/28 08:00:18;;;;;;;8.32;2.42;;;;;;;;;;6252329;28;20025;-74
2022/05/28 08:03:18;;;;;;;2.45;1.15;;;;;;;;;;6257733;28;20075;-74
2022/05/28 08:06:19;;;;;;;2.55;1.38;;;;;;;;;;6268935;28;20032;-74
2022/05/28 08:09:19;;;;;;;3.60;1.17;;;;;;;;;;6260846;28;20056;-74
2022/05/28 08:12:20;;;;;;;8.00;1.70;;;;;;;;;;6251043;28;20022;-74
2022/05/28 08:15:20;;;;;;;3.10;1.25;;;;;;;;;;6256540;28;20047;-74
2022/05/28 08:18:23;;;;;;;6.20;1.45;;;;;;;;;;6265926;28;20409;-74
2022/05/28 08:24:42;;;;;;;6.00;1.38;;;;;;;;;;6263439;28;20080;-74
2022/05/28 08:27:42;;;;;;;5.63;1.93;;;;;;;;;;6266965;28;20396;-74
2022/05/28 08:30:43;;;;;;;6.37;1.80;;;;;;;;;;6261434;28;20021;-74
2022/05/28 08:33:43;;;;;;;8.33;1.17;;;;;;;;;;6269264;28;20539;-74
2022/05/28 08:36:43;;;;;;;9.23;2.43;;;;;;;;;;6255891;28;20053;-74
2022/05/28 08:39:43;;;;;;;4.43;1.83;;;;;;;;;;6256422;28;20080;-74
2022/05/28 08:42:44;;;;;;;5.47;2.17;;;;;;;;;;6261912;28;20074;-74
2022/05/28 08:45:46;;;;;;;9.60;3.07;;;;;;;;;;6261915;28;20022;-74
2022/05/28 08:48:46;;;;;;;;;;;;;;;;;;6270897;28;20024;-74
2022/05/28 08:51:50;;;;;;;3.95;1.00;;;;;;;;;;6264635;28;20303;-74
2022/05/28 08:54:59;;;;;;;7.07;1.55;;;;;;;;;;6268556;28;20021;-74
2022/05/28 08:58:09;;;;;;;7.05;2.28;;;;;;;;;;6264226;28;20017;-74
2022/05/28 09:01:20;;;;;;;8.73;2.47;;;;;;;;;;6268635;28;20380;-74
2022/05/28 09:04:26;;;;;;;5.38;1.40;;;;;;;;;;6264108;28;20017;-74
2022/05/28 09:07:26;;;;;;;7.30;1.63;;;;;;;;;;6261008;28;20092;-75
2022/05/28 09:10:27;;;;;;;5.20;1.47;;;;;;;;;;6262030;28;20023;-75
2022/05/28 09:13:36;;;;;;;4.43;1.40;;;;;;;;;;6261815;28;20009;-74
2022/05/28 09:16:38;;;;;;;6.05;1.00;;;;;;;;;;6268072;28;20024;-76
2022/05/28 09:19:42;;;;;;;6.30;1.95;;;;;;;;;;6264206;28;20049;-74
2022/05/28 09:22:42;;;;;;;6.70;1.20;;;;;;;;;;6266642;28;20022;-75
2022/05/28 09:25:45;;;;;;;5.03;1.80;;;;;;;;;;6264901;28;20041;-75
2022/05/28 09:28:49;;;;;;;4.55;1.45;;;;;;;;;;6264959;28;20028;-74
2022/05/28 09:31:58;;;;;;;5.82;2.08;;;;;;;;;;6270293;28;20028;-75
2022/05/28 09:35:05;;;;;;;4.50;1.92;;;;;;;;;;6272650;28;20104;-74
2022/05/28 09:38:09;;;;;;;7.60;2.50;;;;;;;;;;6273398;28;20460;-75
2022/05/28 09:41:28;;;;;;;4.95;2.15;;;;;;;;;;6274822;28;20024;-75
2022/05/28 09:44:29;;;;;;;4.68;1.80;;;;;;;;;;6275170;28;20039;-75
2022/05/28 09:47:29;;;;;;;3.83;1.00;;;;;;;;;;6273700;28;20025;-75
2022/05/28 09:50:37;;;;;;;8.07;1.67;;;;;;;;;;6268164;28;20017;-75
2022/05/28 09:57:10;;;;;;;5.47;1.40;;;;;;;;;;6262222;28;20048;-74
2022/05/28 10:00:12;;;;;;;3.65;1.38;;;;;;;;;;6268340;28;20017;-74
2022/05/28 10:06:32;;;;;;;4.00;0.80;;;;;;;;;;6268936;28;20033;-74
2022/05/28 10:09:33;;;;;;;8.30;1.63;;;;;;;;;;6263510;28;20032;-75
2022/05/28 10:12:33;;;;;;;7.18;0.70;;;;;;;;;;6268765;28;20566;-74
2022/05/28 10:15:37;;;;;;;5.10;1.43;;;;;;;;;;6274141;28;20029;-75
2022/05/28 10:18:39;;;;;;;1.63;0.85;;;;;;;;;;6272158;28;20056;-74
2022/05/28 10:21:39;;;;;;;;;;;;;;;;;;6268944;28;20038;-75
2022/05/28 10:24:44;;;;;;;4.88;1.10;;;;;;;;;;6271141;28;19913;-75
2022/05/28 10:27:48;;;;;;;2.13;0.80;;;;;;;;;;6270320;28;20028;-75
2022/05/28 10:30:49;;;;;;;5.63;0.80;;;;;;;;;;6267976;28;20028;-74
2022/05/28 10:33:49;;;;;;;2.20;0.63;;;;;;;;;;6267971;28;20032;-74
2022/05/28 10:36:49;;;;;;;1.27;0.63;;;;;;;;;;6265662;28;20042;-75
2022/05/28 10:39:50;;;;;;;3.43;0.90;;;;;;;;;;6267185;28;20040;-74
2022/05/28 10:42:55;;;;;;;6.97;1.47;;;;;;;;;;6264957;28;20040;-74
2022/05/28 10:46:15;;;;;;;2.83;1.20;;;;;;;;;;6273797;28;20036;-75
2022/05/28 10:49:24;;;;;;;6.78;1.63;;;;;;;;;;6272670;28;20098;-76
2022/05/28 10:52:34;;;;;;;2.17;1.02;;;;;;;;;;6274643;28;20029;-76
2022/05/28 10:55:40;;;;;;;8.77;4.22;;;;;;;;;;6274701;28;20029;-76
2022/05/28 10:58:46;;;;;;;6.82;2.70;;;;;;;;;;6273526;28;20025;-75
2022/05/28 11:01:56;;;;;;;5.90;1.90;;;;;;;;;;6273530;28;20035;-75
2022/05/28 11:05:04;;;;;;;2.97;1.20;;;;;;;;;;6274700;28;20056;-75
2022/05/28 11:08:12;;;;;;;5.13;1.40;;;;;;;;;;6271505;28;20033;-76
2022/05/28 11:11:27;;;;;;;4.38;1.15;;;;;;;;;;6268467;28;20072;-74
2022/05/28 11:14:27;;;;;;;3.83;0.93;;;;;;;;;;6264243;28;20023;-75
2022/05/28 11:17:43;;;;;;;2.50;1.70;;;;;;;;;;6271405;28;20017;-75
2022/05/28 11:21:01;;;;;;;1.50;1.25;;;;;;;;;;6270940;28;20049;-75
2022/05/28 11:24:08;;;;;;;3.25;1.30;;;;;;;;;;6271727;28;20025;-74
2022/05/28 11:27:27;;;;;;;2.55;1.33;;;;;;;;;;6271293;28;20032;-74
2022/05/28 11:30:30;;;;;;;1.33;1.15;;;;;;;;;;6272423;28;20384;-74
2022/05/28 11:33:34;;;;;;;2.55;0.93;;;;;;;;;;6272621;28;20025;-73
2022/05/28 11:36:38;;;;;;;2.20;1.08;;;;;;;;;;6270028;28;20500;-74
2022/05/28 11:39:47;;;;;;;2.67;1.25;;;;;;;;;;6267477;28;20025;-74
2022/05/28 11:42:51;;;;;;;5.32;1.58;;;;;;;;;;6262750;28;20460;-74
2022/05/28 11:45:54;;;;;;;2.45;0.70;;;;;;;;;;6270887;28;20025;-74
2022/05/28 11:52:35;;;;;;;1.65;0.90;;;;;;;;;;6266543;28;20497;-74
2022/05/28 11:55:36;;;;;;;3.63;1.70;;;;;;;;;;6269687;28;20112;-76
2022/05/28 11:58:40;;;;;;;3.10;1.70;;;;;;;;;;6270579;28;20040;-76
2022/05/28 12:01:44;;;;;;;4.22;1.20;;;;;;;;;;6270849;28;20056;-73
2022/05/28 12:04:44;;;;;;;0.98;0.60;;;;;;;;;;6262693;28;20028;-73
2022/05/28 12:07:46;;;;;;;0.80;0.80;;;;;;;;;;6262267;28;20029;-73
2022/05/28 12:10:51;;;;;;;1.48;0.85;;;;;;;;;;6259754;28;20098;-76
2022/05/28 12:13:53;;;;;;;0.85;0.70;;;;;;;;;;6247781;28;20103;-75
2022/05/28 12:16:58;;;;;;;1.95;1.20;;;;;;;;;;6257482;28;20029;-76
2022/05/28 12:20:00;;;;;;;8.40;3.58;;;;;;;;;;6260344;28;20551;-76
2022/05/28 12:23:03;;;;;;;1.63;1.08;;;;;;;;;;6253885;28;20021;-75
2022/05/28 12:26:39;;;;;;;2.22;0.82;;;;;;;;;;6262268;28;20104;-75
2022/05/28 12:29:54;;;;;;;1.58;0.88;;;;;;;;;;6260797;28;20103;-76
2022/05/28 12:32:57;;;;;;;2.20;0.85;;;;;;;;;;6265356;28;20040;-76
2022/05/28 12:36:08;;;;;;;5.78;2.78;;;;;;;;;;6252315;28;20039;-76
2022/05/28 12:39:14;;;;;;;4.83;1.60;;;;;;;;;;6262592;28;20013;-76
2022/05/28 12:42:20;;;;;;;5.20;2.78;;;;;;;;;;6256907;28;20307;-76
2022/05/28 12:45:23;;;;;;;5.57;1.05;;;;;;;;;;6260876;28;20036;-76
2022/05/28 12:48:31;;;;;;;4.43;2.00;;;;;;;;;;6260306;28;20025;-76
2022/05/28 12:51:50;;;;;;;3.53;0.80;;;;;;;;;;6267605;28;20059;-76
2022/05/28 12:55:09;;;;;;;2.90;0.90;;;;;;;;;;6268268;28;20071;-76
2022/05/28 12:58:11;;;;;;;5.13;1.80;;;;;;;;;;6267138;28;20368;-76
2022/05/28 13:01:24;;;;;;;3.38;1.55;;;;;;;;;;6269147;28;20020;-76
2022/05/28 13:04:27;;;;;;;6.03;1.42;;;;;;;;;;6270378;28;20017;-77
2022/05/28 13:07:53;;;;;;;1.83;0.65;;;;;;;;;;6275384;28;20013;-79
2022/05/28 13:10:55;;;;;;;0.63;0.63;;;;;;;;;;6265216;28;20033;-79
2022/05/28 13:14:04;;;;;;;0.63;0.45;;;;;;;;;;6267389;28;20024;-79
2022/05/28 13:17:07;;;;;;;3.55;1.20;;;;;;;;;;6284372;28;20055;-79
2022/05/28 13:20:14;;;;;;;3.47;1.92;;;;;;;;;;6264132;28;20053;-76
2022/05/28 13:23:23;;;;;;;10.35;2.53;;;;;;;;;;6268337;28;20025;-75
2022/05/28 13:26:23;;;;;;;3.03;2.00;;;;;;;;;;6262921;28;20017;-76
2022/05/28 13:29:23;;;;;;;3.23;1.93;;;;;;;;;;6267838;28;20103;-76
2022/05/28 13:32:29;;;;;;;3.20;1.40;;;;;;;;;;6286366;28;20021;-77
2022/05/28 13:35:41;;;;;;;1.35;0.90;;;;;;;;;;6267675;28;20861;-78
2022/05/28 13:38:43;;;;;;;3.80;1.70;;;;;;;;;;6279996;28;20005;-78
2022/05/28 13:41:45;;;;;;;3.80;1.58;;;;;;;;;;6279922;28;20025;-78
2022/05/28 13:44:48;;;;;;;2.70;1.80;;;;;;;;;;6280810;28;20560;-77
2022/05/28 13:47:48;;;;;;;2.53;1.70;;;;;;;;;;6277995;28;20433;-79
2022/05/28 13:50:50;;;;;;;3.23;1.17;;;;;;;;;;6268898;28;20020;-79
2022/05/28 13:53:59;;;;;;;3.03;1.35;;;;;;;;;;6268906;28;20644;-80
2022/05/28 13:57:01;;;;;;;3.55;1.17;;;;;;;;;;6269798;28;20021;-78
2022/05/28 14:00:03;;;;;;;2.70;0.90;;;;;;;;;;6273402;28;20023;-79
2022/05/28 14:03:05;;;;;;;1.58;0.75;;;;;;;;;;6266730;28;20111;-78
2022/05/28 14:06:25;;;;;;;7.50;1.60;;;;;;;;;;6269778;28;20024;-78
2022/05/28 14:09:34;;;;;;;2.97;1.13;;;;;;;;;;6269515;28;20090;-76
2022/05/28 14:12:39;;;;;;;1.73;0.73;;;;;;;;;;6271790;28;20055;-76
2022/05/28 14:15:39;;;;;;;1.73;0.75;;;;;;;;;;6259818;28;20373;-76
2022/05/28 14:18:39;;;;;;;3.93;1.00;;;;;;;;;;6264984;28;20037;-76
2022/05/28 14:21:42;;;;;;;1.13;0.67;;;;;;;;;;6265291;28;20017;-75
2022/05/28 14:24:42;;;;;;;4.30;1.17;;;;;;;;;;6257821;28;20063;-75
2022/05/28 14:27:42;;;;;;;1.07;0.97;;;;;;;;;;6267354;28;20433;-75
2022/05/28 14:30:43;;;;;;;1.07;1.00;;;;;;;;;;6267405;28;20489;-76
2022/05/28 14:33:47;;;;;;;4.40;1.20;;;;;;;;;;6271250;28;20421;-75
2022/05/28 14:36:49;;;;;;;2.15;1.25;;;;;;;;;;6268116;28;20009;-75
2022/05/28 14:39:49;;;;;;;3.35;1.77;;;;;;;;;;6266336;28;20013;-76
2022/05/28 14:42:54;;;;;;;5.10;1.60;;;;;;;;;;6272174;28;20028;-76
2022/05/28 14:46:12;;;;;;;2.35;0.95;;;;;;;;;;6271052;28;20028;-75
2022/05/28 14:49:33;;;;;;;2.35;0.90;;;;;;;;;;6271928;28;20076;-76
2022/05/28 14:52:34;;;;;;;3.30;1.30;;;;;;;;;;6270338;28;20127;-76
2022/05/28 14:55:35;;;;;;;2.05;0.65;;;;;;;;;;6269650;28;20095;-75
2022/05/28 14:58:44;;;;;;;4.70;1.40;;;;;;;;;;6271960;28;20013;-75
2022/05/28 15:01:44;;;;;;;2.05;1.00;;;;;;;;;;6271227;28;20087;-76
2022/05/28 15:04:44;;;;;;;3.60;0.80;;;;;;;;;;6272707;28;20021;-76
2022/05/28 15:08:08;;;;;;;2.90;0.80;;;;;;;;;;6254123;28;20024;-75
2022/05/28 15:11:18;;;;;;;1.80;1.58;;;;;;;;;;6256008;28;20029;-75
2022/05/28 15:14:27;;;;;;;1.70;0.70;;;;;;;;;;6266795;28;20017;-76
2022/05/28 15:17:27;;;;;;;5.28;1.05;;;;;;;;;;6269613;28;20044;-75
2022/05/28 15:20:27;;;;;;;1.83;0.83;;;;;;;;;;6269354;28;20525;-75
2022/05/28 15:23:30;;;;;;;1.83;1.00;;;;;;;;;;6270915;28;20031;-75
2022/05/28 15:26:30;;;;;;;5.03;1.05;;;;;;;;;;6265438;28;20461;-75
2022/05/28 15:29:31;;;;;;;7.17;0.90;;;;;;;;;;6261904;28;20049;-75
2022/05/28 15:32:35;;;;;;;1.30;0.90;;;;;;;;;;6268780;28;20029;-75
2022/05/28 15:38:54;;;;;;;3.38;1.13;;;;;;;;;;6265966;28;20340;-75
2022/05/28 15:41:54;;;;;;;3.50;1.50;;;;;;;;;;6267199;28;20098;-74
2022/05/28 15:44:55;;;;;;;2.07;1.27;;;;;;;;;;6258299;28;20071;-75
2022/05/28 15:47:55;;;;;;;5.43;1.30;;;;;;;;;;6268084;28;20033;-75
2022/05/28 15:50:56;;;;;;;3.30;1.50;;;;;;;;;;6270396;28;20287;-75
2022/05/28 15:53:57;;;;;;;1.57;1.10;;;;;;;;;;6262971;28;20063;-75
2022/05/28 15:57:01;;;;;;;8.48;2.58;;;;;;;;;;6263744;28;20051;-75
2022/05/28 16:00:01;;;;;;;2.13;1.60;;;;;;;;;;6269620;28;20021;-74
2022/05/28 16:03:01;;;;;;;3.13;1.03;;;;;;;;;;6270162;28;20039;-74
2022/05/28 16:06:07;;;;;;;5.03;1.23;;;;;;;;;;6270771;28;20013;-74
2022/05/28 16:09:07;;;;;;;5.05;1.17;;;;;;;;;;6269895;28;20075;-74
2022/05/28 16:12:08;;;;;;;4.53;1.37;;;;;;;;;;6271099;28;20049;-74
2022/05/28 16:15:09;;;;;;;2.45;1.17;;;;;;;;;;6268382;28;20017;-74
2022/05/28 16:18:10;;;;;;;6.67;1.33;;;;;;;;;;6269204;28;20041;-74
2022/05/28 16:21:11;;;;;;;4.23;1.10;;;;;;;;;;6270618;28;20024;-74
2022/05/28 16:24:11;;;;;;;3.40;1.17;;;;;;;;;;6268152;28;20063;-74
2022/05/28 16:27:12;;;;;;;3.37;1.20;;;;;;;;;;6271098;28;20279;-74
2022/05/28 16:30:15;;;;;;;1.80;0.38;;;;;;;;;;6270501;28;20136;-74
2022/05/28 16:33:15;;;;;;;2.63;1.38;;;;;;;;;;6269503;28;20032;-74
2022/05/28 16:36:15;;;;;;;2.13;1.20;;;;;;;;;;6268981;28;20493;-74
2022/05/28 16:39:15;;;;;;;5.73;3.20;;;;;;;;;;6268903;28;20460;-75
2022/05/28 16:42:17;;;;;;;4.55;1.67;;;;;;;;;;6272417;28;20025;-74
2022/05/28 16:45:17;;;;;;;3.80;1.70;;;;;;;;;;6268785;28;20432;-75
2022/05/28 16:48:18;;;;;;;2.63;0.90;;;;;;;;;;6268374;28;20031;-74
2022/05/28 16:51:18;;;;;;;3.10;1.23;;;;;;;;;;6270868;28;20020;-74
2022/05/28 16:54:18;;;;;;;2.00;1.00;;;;;;;;;;6264028;28;20029;-75
2022/05/28 16:57:21;;;;;;;2.50;0.90;;;;;;;;;;6262305;28;20052;-75
2022/05/28 17:00:22;;;;;;;2.53;1.00;;;;;;;;;;6261916;28;20078;-75
2022/05/28 17:03:22;;;;;;;1.50;1.07;;;;;;;;;;6263686;28;20480;-75
2022/05/28 17:06:23;;;;;;;5.47;1.15;;;;;;;;;;6267007;28;20415;-74
2022/05/28 17:09:23;;;;;;;5.60;1.67;;;;;;;;;;6266727;28;20535;-74
2022/05/28 17:12:26;;;;;;;8.57;4.27;;;;;;;;;;6267585;28;20094;-74
2022/05/28 17:15:26;;;;;;;5.07;1.95;;;;;;;;;;6267945;28;20056;-75
2022/05/28 17:18:27;;;;;;;4.80;3.03;;;;;;;;;;6257274;28;20049;-74
2022/05/28 17:21:31;;;;;;;2.93;2.57;;;;;;;;;;6268118;28;20028;-74
2022/05/28 17:24:31;;;;;;;2.53;1.38;;;;;;;;;;6268412;28;20017;-74
2022/05/28 17:27:31;;;;;;;3.07;1.17;;;;;;;;;;6266403;28;20048;-73
2022/05/28 17:30:34;;;;;;;2.13;1.10;;;;;;;;;;6265482;28;20017;-74
2022/05/28 17:33:35;;;;;;;4.50;2.13;;;;;;;;;;6279700;28;20017;-74
2022/05/28 17:36:36;;;;;;;4.57;1.37;;;;;;;;;;6266900;28;20025;-74
2022/05/28 17:39:36;;;;;;;4.93;2.13;;;;;;;;;;6264606;28;20045;-75
2022/05/28 17:42:36;;;;;;;13.13;7.80;;;;;;;;;;6258134;28;20482;-74
2022/05/28 17:45:37;;;;;;;55.78;27.45;;;;;;;;;;6267453;28;20405;-74
2022/05/28 17:48:39;;;;;;;58.25;26.88;;;;;;;;;;6262743;28;20040;-74
2022/05/28 17:51:39;;;;;;;13.70;7.30;;;;;;;;;;6270696;28;20036;-74
2022/05/28 17:54:39;;;;;;;9.00;4.97;;;;;;;;;;6267832;28;20108;-74
2022/05/28 17:57:40;;;;;;;9.97;4.07;;;;;;;;;;6273877;28;20075;-73
2022/05/28 18:00:41;;;;;;;2.38;1.60;;;;;;;;;;6272274;28;20262;-73
2022/05/28 18:03:42;;;;;;;7.00;1.92;;;;;;;;;;6256768;28;20073;-73
2022/05/28 18:06:43;;;;;;;7.28;3.95;;;;;;;;;;6267219;28;20060;-73
2022/05/28 18:09:43;;;;;;;3.47;2.20;;;;;;;;;;6269044;28;20364;-73
2022/05/28 18:12:43;;;;;;;6.22;2.20;;;;;;;;;;6270116;28;20020;-73
2022/05/28 18:15:45;;;;;;;5.50;2.53;;;;;;;;;;6269433;28;20064;-73
2022/05/28 18:18:45;;;;;;;6.07;3.28;;;;;;;;;;6262981;28;20072;-74
2022/05/28 18:21:46;;;;;;;5.70;2.30;;;;;;;;;;6268406;28;20054;-74
2022/05/28 18:24:47;;;;;;;3.67;2.47;;;;;;;;;;6262620;28;20017;-74